Smithfield - 24 Hour Table
Date & TimeSolar
Radiation
(W/m²)
Wind
Speed
(mph)
Wind
Direction
(degrees)
Air
Temperature
(°F)
Relative
Humidity
(%)
Precipitation
(inches)
Max
Wind
Speed
(mph)
2021/12/01 14:00 430 3.1 238 49.4 43 0.00 7.8
2021/12/01 13:00 419 3.4 223 46.6 52 0.00 6.0
2021/12/01 12:00 434 3.2 209 43.5 57 0.00 6.0
2021/12/01 11:00 351 2.9 228 40.5 66 0.00 5.3
2021/12/01 10:00 239 2.1 236 38.7 67 0.00 4.9
2021/12/01 09:00 75 3.8 58 33.4 70 0.00 5.6
2021/12/01 08:00 5 2.1 70 30.3 81 0.00 3.5
2021/12/01 07:00 0 2.2 131 31.9 82 0.00 4.6
2021/12/01 06:00 0 3.4 59 33.1 75 0.00 5.3
2021/12/01 05:00 0 2.5 44 33.0 80 0.00 4.9
2021/12/01 04:00 0 2.8 59 33.3 75 0.00 4.9
2021/12/01 03:00 0 2.0 94 34.3 75 0.00 4.2
2021/12/01 02:00 0 2.1 89 36.0 78 0.00 4.9
2021/12/01 01:00 0 2.5 59 36.0 71 0.00 6.0
2021/12/01 00:00 0 3.1 51 35.6 66 0.00 5.3
2021/11/30 23:00 0 3.5 65 34.7 69 0.00 5.6
2021/11/30 22:00 0 3.9 69 36.1 63 0.00 6.0
2021/11/30 21:00 0 4.0 49 35.9 56 0.00 6.7
2021/11/30 20:00 0 3.7 62 36.7 73 0.00 6.0
2021/11/30 19:00 0 4.4 56 37.2 64 0.00 6.0
2021/11/30 18:00 1 3.1 55 39.7 71 0.00 4.2
2021/11/30 17:00 35 1.2 15 43.0 69 0.00 3.8
2021/11/30 16:00 125 2.5 224 44.8 59 0.00 5.6
2021/11/30 15:00 237 2.8 239 43.5 64 0.00 7.1